Station Historical Data
Daily Summary for June 1, 2017 Units:  Metric    English   Both
« Previous Day
Next Day »
Daily Weekly Monthly Yearly Custom
  High: Low: Average:
Temperature: 18.4 °C 12.4 °C 15.3 °C
Dew Point: 10.8 °C 6.4 °C 9 °C
Humidity: 81% 46% 66%
Wind Speed: 27.4km/h 0km/h 6.9km/h
Wind Gust: 35.4km/h - -
Wind- - WSW
Pressure: 1015.8 hPa 1012.8 hPa -
Precipitation: 0 mm    
Historical Graphs
 
 
Tabular Data for June 1, 2017
Time Temperature Dew Point Pressure Wind Wind Speed Wind Gust Humidity Rainfall Rate (Hourly)
00:04 14.2 °C 10.8 °C 1012.8 hPa Calm   3.2 km/h 80% 0 mm
00:09 14.2 °C 10.8 °C 1012.8 hPa Calm     80% 0 mm
00:14 14.1 °C 10.7 °C 1012.8 hPa Calm     80% 0 mm
00:19 14.2 °C 10.8 °C 1013.1 hPa Calm     80% 0 mm
00:24 14.2 °C 10.8 °C 1013.1 hPa NW 1.6 km/h 4.8 km/h 80% 0 mm
00:29 14.5 °C 10.1 °C 1013.1 hPa NW 1.6 km/h 9.7 km/h 75% 0 mm
00:34 15.1 °C 9.6 °C 1013.1 hPa NW 8 km/h 11.3 km/h 70% 0 mm
00:39 15.4 °C 9.5 °C 1013.1 hPa WNW 8 km/h 19.3 km/h 68% 0 mm
00:44 15.6 °C 9.4 °C 1013.1 hPa NNW 4.8 km/h 17.7 km/h 67% 0 mm
00:49 15.6 °C 9.4 °C 1013.4 hPa NW 3.2 km/h 12.9 km/h 67% 0 mm
00:54 15.5 °C 9.4 °C 1013.4 hPa NNW 8 km/h 9.7 km/h 67% 0 mm
00:59 15.4 °C 9.3 °C 1013.1 hPa NNW 4.8 km/h 11.3 km/h 67% 0 mm
01:04 15.2 °C 9.1 °C 1013.1 hPa NNW 3.2 km/h 11.3 km/h 67% 0 mm
01:09 15.1 °C 9.2 °C 1013.1 hPa Calm   1.6 km/h 68% 0 mm
01:14 15.1 °C 9.2 °C 1013.4 hPa NW 3.2 km/h 3.2 km/h 68% 0 mm
01:19 15.2 °C 9.3 °C 1013.4 hPa Calm   4.8 km/h 68% 0 mm
01:24 15.1 °C 9.2 °C 1013.4 hPa Calm   4.8 km/h 68% 0 mm
01:29 15.1 °C 9.2 °C 1013.1 hPa WNW 1.6 km/h 6.4 km/h 68% 0 mm
01:34 15.1 °C 9.2 °C 1013.1 hPa WNW 1.6 km/h 6.4 km/h 68% 0 mm
01:39 15.1 °C 9.2 °C 1013.4 hPa Calm   3.2 km/h 68% 0 mm
01:44 15.1 °C 9.2 °C 1013.1 hPa Calm     68% 0 mm
01:49 15 °C 9.1 °C 1013.4 hPa Calm   3.2 km/h 68% 0 mm
01:54 14.9 °C 9.3 °C 1013.4 hPa Calm   1.6 km/h 69% 0 mm
01:59 14.9 °C 9.2 °C 1013.4 hPa Calm     69% 0 mm
02:04 14.9 °C 9.1 °C 1013.4 hPa Calm     68% 0 mm
02:09 14.9 °C 9.1 °C 1013.4 hPa Calm     68% 0 mm
02:14 14.8 °C 8.9 °C 1013.4 hPa Calm     68% 0 mm
02:19 14.8 °C 8.9 °C 1013.4 hPa Calm     68% 0 mm
02:24 14.8 °C 8.7 °C 1013.4 hPa Calm     67% 0 mm
02:29 14.8 °C 8.7 °C 1013.4 hPa Calm     67% 0 mm
02:34 14.7 °C 8.9 °C 1013.4 hPa Calm     68% 0 mm
02:39 14.7 °C 8.8 °C 1013.4 hPa Calm     68% 0 mm
02:44 14.5 °C 9.1 °C 1013.4 hPa Calm     70% 0 mm
02:49 14.4 °C 9 °C 1013.4 hPa Calm     70% 0 mm
02:54 14.4 °C 9 °C 1013.4 hPa Calm     70% 0 mm
02:59 14.4 °C 9 °C 1013.4 hPa Calm     70% 0 mm
03:04 14.4 °C 9.1 °C 1013.4 hPa Calm     70% 0 mm
03:09 14.3 °C 8.9 °C 1013.4 hPa Calm     70% 0 mm
03:14 14.4 °C 9 °C 1013.1 hPa Calm     70% 0 mm
03:19 14.3 °C 8.9 °C 1013.4 hPa Calm     70% 0 mm
03:24 14.4 °C 8.8 °C 1013.1 hPa Calm     69% 0 mm
03:29 14.4 °C 9.1 °C 1013.1 hPa Calm     70% 0 mm
03:34 14.4 °C 9 °C 1013.1 hPa Calm     70% 0 mm
03:39 14.3 °C 9.2 °C 1013.4 hPa Calm   3.2 km/h 71% 0 mm
03:44 14.3 °C 9.2 °C 1013.4 hPa WSW 3.2 km/h 4.8 km/h 71% 0 mm
03:49 14.3 °C 8.9 °C 1013.4 hPa WSW 4.8 km/h 4.8 km/h 70% 0 mm
03:54 14.3 °C 8.9 °C 1013.4 hPa West 1.6 km/h 4.8 km/h 70% 0 mm
03:59 14.3 °C 8.9 °C 1013.4 hPa WSW 3.2 km/h 6.4 km/h 70% 0 mm
04:04 14.3 °C 8.9 °C 1013.4 hPa SW 1.6 km/h 6.4 km/h 70% 0 mm
04:09 14.2 °C 8.8 °C 1013.4 hPa SW 1.6 km/h 4.8 km/h 70% 0 mm
04:14 14.2 °C 8.8 °C 1013.4 hPa SW 1.6 km/h 4.8 km/h 70% 0 mm
04:19 14.3 °C 8.9 °C 1013.4 hPa SW 1.6 km/h 6.4 km/h 70% 0 mm
04:24 14.2 °C 8.6 °C 1013.4 hPa WSW 3.2 km/h 6.4 km/h 69% 0 mm
04:29 14.2 °C 8.6 °C 1013.4 hPa WSW 1.6 km/h 8 km/h 69% 0 mm
04:34 14.2 °C 8.6 °C 1013.1 hPa WSW 3.2 km/h 6.4 km/h 69% 0 mm
04:39 14.2 °C 8.6 °C 1013.4 hPa SW 6.4 km/h 9.7 km/h 69% 0 mm
04:44 14.2 °C 8.6 °C 1013.4 hPa SW 1.6 km/h 6.4 km/h 69% 0 mm
04:49 14.2 °C 8.6 °C 1013.4 hPa SW 3.2 km/h 6.4 km/h 69% 0 mm
04:54 14.2 °C 8.8 °C 1013.4 hPa Calm   6.4 km/h 70% 0 mm
04:59 14.1 °C 9.1 °C 1013.4 hPa WSW 3.2 km/h 6.4 km/h 72% 0 mm
05:04 14.1 °C 9.1 °C 1013.4 hPa SW 3.2 km/h 8 km/h 72% 0 mm
05:09 14.1 °C 9.3 °C 1013.4 hPa SW 3.2 km/h 8 km/h 73% 0 mm
05:14 14.1 °C 9.1 °C 1013.4 hPa SW 3.2 km/h 8 km/h 72% 0 mm
05:19 14 °C 9.2 °C 1013.4 hPa WSW 1.6 km/h 6.4 km/h 73% 0 mm
05:24 14 °C 9.2 °C 1013.4 hPa SW 3.2 km/h 6.4 km/h 73% 0 mm
05:29 14 °C 9.2 °C 1013.4 hPa SW 3.2 km/h 6.4 km/h 73% 0 mm
05:34 14 °C 9.2 °C 1013.4 hPa SW 1.6 km/h 8 km/h 73% 0 mm
05:39 14 °C 9.2 °C 1013.4 hPa SSW 3.2 km/h 6.4 km/h 73% 0 mm
05:44 13.9 °C 9.2 °C 1013.4 hPa SSW 3.2 km/h 9.7 km/h 73% 0 mm
05:49 13.9 °C 9.1 °C 1013.8 hPa SW 4.8 km/h 8 km/h 73% 0 mm
05:54 13.9 °C 9.1 °C 1013.8 hPa WSW 3.2 km/h 8 km/h 73% 0 mm
05:59 13.9 °C 9.2 °C 1013.8 hPa WSW 4.8 km/h 9.7 km/h 73% 0 mm
06:04 13.9 °C 9.3 °C 1013.8 hPa WSW 9.7 km/h 12.9 km/h 74% 0 mm
06:09 13.9 °C 9.6 °C 1013.8 hPa SW 6.4 km/h 14.5 km/h 75% 0 mm
06:14 13.8 °C 9.7 °C 1013.8 hPa WSW 4.8 km/h 14.5 km/h 76% 0 mm
06:19 13.7 °C 9.9 °C 1013.8 hPa WSW 3.2 km/h 9.7 km/h 78% 0 mm
06:24 13.6 °C 10.2 °C 1014.1 hPa WSW 4.8 km/h 9.7 km/h 80% 0 mm
06:29 13.6 °C 10.4 °C 1014.1 hPa WSW 6.4 km/h 9.7 km/h 81% 0 mm
06:34 13.7 °C 10.4 °C 1014.1 hPa West 1.6 km/h 11.3 km/h 81% 0 mm
06:39 13.7 °C 10.5 °C 1014.1 hPa WSW 4.8 km/h 11.3 km/h 81% 0 mm
06:44 13.9 °C 10.5 °C 1014.4 hPa WSW 4.8 km/h 9.7 km/h 80% 0 mm
06:49 13.9 °C 10 °C 1014.4 hPa WNW 4.8 km/h 16.1 km/h 77% 0 mm
06:54 14.1 °C 9.9 °C 1014.4 hPa West 4.8 km/h 11.3 km/h 76% 0 mm
06:59 14.1 °C 9.7 °C 1014.4 hPa West 4.8 km/h 11.3 km/h 75% 0 mm
07:04 13.9 °C 9.6 °C 1014.4 hPa WNW 9.7 km/h 12.9 km/h 75% 0 mm
07:09 13.9 °C 9.8 °C 1014.8 hPa West 6.4 km/h 12.9 km/h 76% 0 mm
07:14 14.1 °C 9.6 °C 1014.8 hPa West 4.8 km/h 12.9 km/h 74% 0 mm
07:19 14.1 °C 9.5 °C 1014.8 hPa West 6.4 km/h 14.5 km/h 74% 0 mm
07:24 14.1 °C 9.3 °C 1014.8 hPa West 8 km/h 19.3 km/h 73% 0 mm
07:29 14.1 °C 9.1 °C 1014.8 hPa West 8 km/h 19.3 km/h 72% 0 mm
07:34 14.2 °C 9.2 °C 1014.8 hPa West 4.8 km/h 9.7 km/h 72% 0 mm
07:39 14.3 °C 9.3 °C 1014.8 hPa WNW 4.8 km/h 9.7 km/h 72% 0 mm
07:44 14.4 °C 9.2 °C 1014.8 hPa WNW 4.8 km/h 12.9 km/h 71% 0 mm
07:49 14.4 °C 9.2 °C 1014.8 hPa WNW 6.4 km/h 14.5 km/h 71% 0 mm
07:54 14.4 °C 9.2 °C 1014.8 hPa WNW 6.4 km/h 14.5 km/h 71% 0 mm
07:59 14.6 °C 9.4 °C 1014.8 hPa WNW 1.6 km/h 9.7 km/h 71% 0 mm
08:04 14.8 °C 9.3 °C 1015.1 hPa WNW 4.8 km/h 11.3 km/h 70% 0 mm
08:09 14.9 °C 9.7 °C 1015.1 hPa West 3.2 km/h 12.9 km/h 71% 0 mm
08:14 14.8 °C 9.2 °C 1014.8 hPa West 6.4 km/h 12.9 km/h 69% 0 mm
08:19 15.1 °C 9.8 °C 1015.1 hPa NNW 6.4 km/h 9.7 km/h 71% 0 mm
08:24 15.1 °C 9.2 °C 1014.8 hPa WNW 8 km/h 14.5 km/h 68% 0 mm
08:29 15.1 °C 9.2 °C 1015.1 hPa West 9.7 km/h 9.7 km/h 68% 0 mm
08:34 14.7 °C 8.9 °C 1015.1 hPa WSW 9.7 km/h 17.7 km/h 68% 0 mm
08:39 14.8 °C 9.2 °C 1015.1 hPa West 12.9 km/h 14.5 km/h 69% 0 mm
08:44 14.9 °C 9.1 °C 1015.1 hPa West 8 km/h 16.1 km/h 68% 0 mm
08:49 14.9 °C 9.1 °C 1015.1 hPa West 8 km/h 16.1 km/h 68% 0 mm
08:54 15.1 °C 9 °C 1015.1 hPa West 8 km/h 14.5 km/h 67% 0 mm
08:59 14.9 °C 8.8 °C 1015.1 hPa West 8 km/h 14.5 km/h 67% 0 mm
09:04 15.2 °C 9.1 °C 1015.1 hPa West 8 km/h 20.9 km/h 67% 0 mm
09:09 15.2 °C 9.1 °C 1015.1 hPa WNW 4.8 km/h 14.5 km/h 67% 0 mm
09:14 15.4 °C 9.3 °C 1015.1 hPa WNW 6.4 km/h 14.5 km/h 67% 0 mm
09:24 16 °C 9.7 °C 1015.1 hPa West 6.4 km/h 12.9 km/h 66% 0 mm
09:29 16.1 °C 9.5 °C 1015.1 hPa West 8 km/h 17.7 km/h 65% 0 mm
09:34 15.7 °C 9.2 °C 1015.1 hPa Calm   17.7 km/h 65% 0 mm
09:39 15.9 °C 9.6 °C 1015.1 hPa NW 4.8 km/h 14.5 km/h 66% 0 mm
09:44 16.2 °C 9.1 °C 1015.1 hPa WNW 9.7 km/h 19.3 km/h 63% 0 mm
09:49 16 °C 9.2 °C 1015.1 hPa West 11.3 km/h 19.3 km/h 64% 0 mm
09:54 16.3 °C 9.4 °C 1015.1 hPa West 8 km/h 17.7 km/h 64% 0 mm
09:59 16.6 °C 9.8 °C 1015.1 hPa WNW 8 km/h 19.3 km/h 64% 0 mm
10:04 16.8 °C 9.7 °C 1015.1 hPa WNW 8 km/h 19.3 km/h 63% 0 mm
10:09 16.5 °C 9.2 °C 1015.1 hPa WNW 9.7 km/h 17.7 km/h 62% 0 mm
10:14 16.4 °C 9.3 °C 1015.1 hPa West 9.7 km/h 20.9 km/h 63% 0 mm
10:19 16.5 °C 9.2 °C 1015.1 hPa West 11.3 km/h 20.9 km/h 62% 0 mm
10:24 16.8 °C 9.9 °C 1015.1 hPa West 9.7 km/h 20.9 km/h 64% 0 mm
10:29 17.3 °C 9.7 °C 1015.1 hPa West 4.8 km/h 14.5 km/h 61% 0 mm
10:34 17 °C 9.7 °C 1015.1 hPa West 6.4 km/h 14.5 km/h 62% 0 mm
10:39 16.7 °C 9.4 °C 1015.1 hPa WSW 4.8 km/h 16.1 km/h 62% 0 mm
10:44 16.8 °C 10 °C 1015.1 hPa NW 3.2 km/h 16.1 km/h 64% 0 mm
10:49 17.1 °C 9.9 °C 1015.1 hPa West 8 km/h 16.1 km/h 63% 0 mm
10:54 17.1 °C 10.2 °C 1015.1 hPa WSW 6.4 km/h 16.1 km/h 64% 0 mm
10:59 16.7 °C 9.9 °C 1015.1 hPa WSW 11.3 km/h 17.7 km/h 64% 0 mm
11:04 16.6 °C 9.3 °C 1015.1 hPa WNW 9.7 km/h 19.3 km/h 62% 0 mm
11:09 16.7 °C 10.1 °C 1015.1 hPa SW 14.5 km/h 14.5 km/h 65% 0 mm
11:14 16.9 °C 9.4 °C 1015.1 hPa WSW 9.7 km/h 17.7 km/h 61% 0 mm
11:19 17.2 °C 9.6 °C 1015.1 hPa WSW 9.7 km/h 17.7 km/h 61% 0 mm
11:24 16.9 °C 9.6 °C 1015.1 hPa WSW 9.7 km/h 19.3 km/h 62% 0 mm
11:29 17.2 °C 9.6 °C 1015.5 hPa WSW 11.3 km/h 20.9 km/h 61% 0 mm
11:34 17.2 °C 10.1 °C 1015.5 hPa SW 8 km/h 24.1 km/h 63% 0 mm
11:39 17.1 °C 9.5 °C 1015.5 hPa WSW 12.9 km/h 19.3 km/h 61% 0 mm
11:44 17 °C 9.4 °C 1015.5 hPa WSW 11.3 km/h 19.3 km/h 61% 0 mm
11:49 17.2 °C 9.8 °C 1015.5 hPa WSW 8 km/h 22.5 km/h 62% 0 mm
11:54 16.6 °C 9.7 °C 1015.1 hPa SW 9.7 km/h 22.5 km/h 64% 0 mm
11:59 16.7 °C 9.6 °C 1015.5 hPa SSW 11.3 km/h 24.1 km/h 63% 0 mm
12:04 16.6 °C 9.7 °C 1015.5 hPa SW 9.7 km/h 19.3 km/h 64% 0 mm
12:09 17.1 °C 9.9 °C 1015.5 hPa SW 11.3 km/h 19.3 km/h 63% 0 mm
12:14 17 °C 9.9 °C 1015.5 hPa WSW 9.7 km/h 19.3 km/h 63% 0 mm
12:19 17.3 °C 10.2 °C 1015.5 hPa WSW 9.7 km/h 22.5 km/h 63% 0 mm
12:24 17 °C 9.7 °C 1015.5 hPa WSW 11.3 km/h 25.7 km/h 62% 0 mm
12:29 17.5 °C 10.6 °C 1015.5 hPa WSW 12.9 km/h 25.7 km/h 64% 0 mm
12:34 17.5 °C 10.6 °C 1015.5 hPa WSW 11.3 km/h 22.5 km/h 64% 0 mm
12:44 17.2 °C 10.3 °C 1015.5 hPa WSW 11.3 km/h 25.7 km/h 64% 0 mm
12:49 17 °C 9.4 °C 1015.5 hPa WSW 11.3 km/h 22.5 km/h 61% 0 mm
12:54 17.5 °C 10.8 °C 1015.5 hPa NW 9.7 km/h 22.5 km/h 65% 0 mm
12:59 17.6 °C 10.7 °C 1015.5 hPa West 4.8 km/h 17.7 km/h 64% 0 mm
13:04 17.7 °C 10.8 °C 1015.5 hPa WSW 8 km/h 19.3 km/h 64% 0 mm
13:09 17.7 °C 10.3 °C 1015.5 hPa WSW 8 km/h 20.9 km/h 62% 0 mm
13:14 18 °C 10.1 °C 1015.5 hPa SW 4.8 km/h 20.9 km/h 60% 0 mm
13:19 17.8 °C 10.2 °C 1015.5 hPa WSW 9.7 km/h 20.9 km/h 61% 0 mm
13:24 17.6 °C 10.2 °C 1015.5 hPa SW 11.3 km/h 22.5 km/h 62% 0 mm
13:29 17.7 °C 8.8 °C 1015.5 hPa SW 11.3 km/h 22.5 km/h 56% 0 mm
13:34 17.8 °C 9.7 °C 1015.5 hPa SW 12.9 km/h 25.7 km/h 59% 0 mm
13:39 18 °C 8.3 °C 1015.5 hPa SW 14.5 km/h 27.4 km/h 53% 0 mm
13:44 17.7 °C 9.1 °C 1015.5 hPa SW 12.9 km/h 29 km/h 57% 0 mm
13:49 17.6 °C 8.7 °C 1015.5 hPa WSW 19.3 km/h 33.8 km/h 56% 0 mm
13:54 17.6 °C 7.9 °C 1015.5 hPa WSW 24.1 km/h 29 km/h 53% 0 mm
13:59 17.3 °C 7.7 °C 1015.5 hPa SW 17.7 km/h 27.4 km/h 53% 0 mm
14:04 17.9 °C 7.6 °C 1015.1 hPa SW 6.4 km/h 22.5 km/h 51% 0 mm
14:09 18.1 °C 7.8 °C 1015.1 hPa SW 9.7 km/h 27.4 km/h 51% 0 mm
14:14 18.4 °C 7.5 °C 1015.1 hPa SW 12.9 km/h 27.4 km/h 49% 0 mm
14:19 18.3 °C 6.4 °C 1015.1 hPa SW 11.3 km/h 29 km/h 46% 0 mm
14:24 17.9 °C 7.4 °C 1015.5 hPa SW 14.5 km/h 30.6 km/h 50% 0 mm
14:29 17.2 °C 6.9 °C 1015.1 hPa WSW 16.1 km/h 30.6 km/h 51% 0 mm
14:34 17.2 °C 6.7 °C 1015.5 hPa West 17.7 km/h 25.7 km/h 50% 0 mm
14:39 17.7 °C 7.7 °C 1015.5 hPa SW 17.7 km/h 30.6 km/h 52% 0 mm
14:44 17.7 °C 7.4 °C 1015.5 hPa SW 16.1 km/h 33.8 km/h 51% 0 mm
14:49 17.4 °C 7.2 °C 1015.5 hPa WSW 17.7 km/h 35.4 km/h 51% 0 mm
14:54 17.3 °C 7.4 °C 1015.8 hPa WSW 17.7 km/h 35.4 km/h 52% 0 mm
14:59 17.3 °C 7.4 °C 1015.5 hPa WSW 16.1 km/h 30.6 km/h 52% 0 mm
15:04 17.6 °C 7.6 °C 1015.5 hPa SW 11.3 km/h 30.6 km/h 52% 0 mm
15:09 17.4 °C 7.4 °C 1015.5 hPa WSW 27.4 km/h 30.6 km/h 52% 0 mm
15:14 17.4 °C 8.3 °C 1015.5 hPa WSW 16.1 km/h 30.6 km/h 55% 0 mm
15:19 17.6 °C 8.4 °C 1015.8 hPa NW 14.5 km/h 30.6 km/h 55% 0 mm
15:29 18.1 °C 7.5 °C 1015.5 hPa West 12.9 km/h 29 km/h 50% 0 mm
15:34 17.5 °C 7.8 °C 1015.5 hPa West 3.2 km/h 27.4 km/h 53% 0 mm
15:39 17.3 °C 7.9 °C 1015.5 hPa WSW 12.9 km/h 27.4 km/h 54% 0 mm
15:44 17.7 °C 8.8 °C 1015.5 hPa SW 16.1 km/h 24.1 km/h 56% 0 mm
15:49 17.5 °C 7.8 °C 1015.5 hPa WSW 14.5 km/h 30.6 km/h 53% 0 mm
15:54 17.1 °C 8.5 °C 1015.5 hPa WSW 17.7 km/h 35.4 km/h 57% 0 mm
15:59 16.9 °C 7.5 °C 1015.5 hPa WSW 17.7 km/h 35.4 km/h 54% 0 mm
16:04 17.2 °C 8.3 °C 1015.5 hPa WSW 14.5 km/h 33.8 km/h 56% 0 mm
16:09 17 °C 7.3 °C 1015.5 hPa WSW 14.5 km/h 33.8 km/h 53% 0 mm
16:14 16.3 °C 7.8 °C 1015.5 hPa WSW 20.9 km/h 25.7 km/h 57% 0 mm
16:19 16.4 °C 8.2 °C 1015.8 hPa SW 6.4 km/h 29 km/h 58% 0 mm
16:24 16.7 °C 8.3 °C 1015.8 hPa WSW 11.3 km/h 30.6 km/h 58% 0 mm
16:29 17.1 °C 8.4 °C 1015.8 hPa WSW 9.7 km/h 16.1 km/h 57% 0 mm
16:34 17.6 °C 7.6 °C 1015.5 hPa West 11.3 km/h 30.6 km/h 52% 0 mm
16:39 17.1 °C 7.9 °C 1015.8 hPa West 8 km/h 17.7 km/h 55% 0 mm
16:44 16.6 °C 7.5 °C 1015.8 hPa WSW 11.3 km/h 24.1 km/h 55% 0 mm
16:49 16.2 °C 8.2 °C 1015.8 hPa WSW 11.3 km/h 25.7 km/h 59% 0 mm
16:54 17 °C 8.9 °C 1015.5 hPa WSW 9.7 km/h 25.7 km/h 59% 0 mm
16:59 16.8 °C 7.7 °C 1015.5 hPa West 11.3 km/h 24.1 km/h 55% 0 mm
17:04 16.8 °C 8 °C 1015.8 hPa WSW 19.3 km/h 30.6 km/h 56% 0 mm
17:09 16.6 °C 7.5 °C 1015.5 hPa SW 20.9 km/h 25.7 km/h 55% 0 mm
17:14 16.3 °C 8.1 °C 1015.8 hPa WSW 12.9 km/h 25.7 km/h 58% 0 mm
17:19 16.6 °C 7.8 °C 1015.5 hPa WSW 11.3 km/h 27.4 km/h 56% 0 mm
17:24 16.6 °C 8.3 °C 1015.5 hPa WSW 11.3 km/h 27.4 km/h 58% 0 mm
17:29 16.7 °C 7.9 °C 1015.5 hPa WSW 11.3 km/h 25.7 km/h 56% 0 mm
17:34 16.8 °C 8.4 °C 1015.5 hPa WSW 9.7 km/h 24.1 km/h 58% 0 mm
17:39 16.6 °C 8 °C 1015.5 hPa WSW 11.3 km/h 22.5 km/h 57% 0 mm
17:44 16.7 °C 7.9 °C 1015.5 hPa West 11.3 km/h 25.7 km/h 56% 0 mm
17:49 16.5 °C 7.7 °C 1015.5 hPa SW 9.7 km/h 27.4 km/h 56% 0 mm
17:54 16.2 °C 7.9 °C 1015.5 hPa WSW 9.7 km/h 30.6 km/h 58% 0 mm
17:59 15.9 °C 7.9 °C 1015.5 hPa SSW 12.9 km/h 24.1 km/h 59% 0 mm
18:04 15.8 °C 8.3 °C 1015.5 hPa SW 8 km/h 29 km/h 61% 0 mm
18:09 15.7 °C 8.2 °C 1015.5 hPa WSW 9.7 km/h 27.4 km/h 61% 0 mm
18:14 15.7 °C 8.4 °C 1015.5 hPa WSW 11.3 km/h 27.4 km/h 62% 0 mm
18:19 15.6 °C 8.3 °C 1015.5 hPa WSW 11.3 km/h 24.1 km/h 62% 0 mm
18:24 15.7 °C 8.7 °C 1015.5 hPa WSW 11.3 km/h 24.1 km/h 63% 0 mm
18:29 15.5 °C 8.5 °C 1015.5 hPa WSW 11.3 km/h 20.9 km/h 63% 0 mm
18:34 15.4 °C 8.4 °C 1015.5 hPa WSW 11.3 km/h 19.3 km/h 63% 0 mm
18:39 15.8 °C 9.1 °C 1015.5 hPa West 6.4 km/h 17.7 km/h 64% 0 mm
18:44 15.6 °C 8.6 °C 1015.5 hPa West 9.7 km/h 19.3 km/h 63% 0 mm
18:49 15.2 °C 8.7 °C 1015.5 hPa WSW 8 km/h 19.3 km/h 65% 0 mm
18:54 15.2 °C 8.6 °C 1015.5 hPa WSW 8 km/h 19.3 km/h 65% 0 mm
18:59 15.1 °C 8.8 °C 1015.5 hPa WSW 9.7 km/h 17.7 km/h 66% 0 mm
19:04 15.1 °C 9 °C 1015.5 hPa West 8 km/h 19.3 km/h 67% 0 mm
19:09 15.1 °C 8.9 °C 1015.5 hPa SW 12.9 km/h 20.9 km/h 67% 0 mm
19:14 15.1 °C 9.2 °C 1015.5 hPa WSW 9.7 km/h 20.9 km/h 68% 0 mm
19:19 15.1 °C 9.2 °C 1015.5 hPa WSW 11.3 km/h 19.3 km/h 68% 0 mm
19:24 15.1 °C 9.2 °C 1015.1 hPa WSW 11.3 km/h 20.9 km/h 68% 0 mm
19:29 15.1 °C 9.2 °C 1015.1 hPa WSW 16.1 km/h 24.1 km/h 68% 0 mm
19:34 15.1 °C 9.2 °C 1015.1 hPa WSW 9.7 km/h 20.9 km/h 68% 0 mm
19:39 15.1 °C 9.2 °C 1015.1 hPa SW 12.9 km/h 19.3 km/h 68% 0 mm
19:44 14.9 °C 9.1 °C 1015.1 hPa WSW 9.7 km/h 19.3 km/h 68% 0 mm
19:49 14.9 °C 9.1 °C 1015.1 hPa WSW 9.7 km/h 19.3 km/h 68% 0 mm
19:54 14.7 °C 9.1 °C 1015.1 hPa WSW 8 km/h 17.7 km/h 69% 0 mm
19:59 14.6 °C 9.2 °C 1015.1 hPa WNW 11.3 km/h 14.5 km/h 70% 0 mm
20:04 14.5 °C 9.3 °C 1015.1 hPa WSW 12.9 km/h 14.5 km/h 71% 0 mm
20:09 14.4 °C 9.2 °C 1015.1 hPa WSW 9.7 km/h 19.3 km/h 71% 0 mm
20:14 14.3 °C 9.2 °C 1015.1 hPa WSW 8 km/h 19.3 km/h 71% 0 mm
20:19 14.3 °C 9.2 °C 1014.8 hPa WSW 8 km/h 17.7 km/h 71% 0 mm
20:24 14.3 °C 9.1 °C 1014.8 hPa WSW 8 km/h 17.7 km/h 71% 0 mm
20:29 14.2 °C 9.2 °C 1014.8 hPa WSW 6.4 km/h 14.5 km/h 72% 0 mm
20:34 14.2 °C 9.2 °C 1014.8 hPa West 4.8 km/h 14.5 km/h 72% 0 mm
20:39 14 °C 9.1 °C 1015.1 hPa WSW 4.8 km/h 12.9 km/h 72% 0 mm
20:44 13.9 °C 9.2 °C 1015.1 hPa WSW 6.4 km/h 12.9 km/h 73% 0 mm
20:49 13.9 °C 9.1 °C 1014.8 hPa WSW 6.4 km/h 11.3 km/h 73% 0 mm
20:54 13.8 °C 9.1 °C 1015.1 hPa SW 8 km/h 14.5 km/h 73% 0 mm
20:59 13.8 °C 9.1 °C 1015.1 hPa WSW 4.8 km/h 11.3 km/h 73% 0 mm
21:04 13.8 °C 8.8 °C 1014.8 hPa SW 6.4 km/h 11.3 km/h 72% 0 mm
21:09 13.8 °C 8.9 °C 1015.1 hPa WSW 1.6 km/h 12.9 km/h 72% 0 mm
21:19 13.9 °C 8.8 °C 1015.1 hPa SW 3.2 km/h 11.3 km/h 71% 0 mm
21:24 13.8 °C 9 °C 1015.1 hPa SW 3.2 km/h 11.3 km/h 73% 0 mm
21:29 13.6 °C 8.8 °C 1015.1 hPa WSW 4.8 km/h 6.4 km/h 73% 0 mm
21:34 13.6 °C 8.8 °C 1015.1 hPa SW 4.8 km/h 9.7 km/h 73% 0 mm
21:39 13.6 °C 8.7 °C 1014.8 hPa SW 11.3 km/h 12.9 km/h 72% 0 mm
21:44 13.7 °C 8.8 °C 1014.8 hPa SW 3.2 km/h 11.3 km/h 72% 0 mm
21:49 13.7 °C 8.8 °C 1014.8 hPa SW 4.8 km/h 11.3 km/h 72% 0 mm
21:54 13.8 °C 9 °C 1015.1 hPa WSW 3.2 km/h 8 km/h 73% 0 mm
21:59 13.9 °C 8.9 °C 1015.1 hPa WSW 3.2 km/h 8 km/h 72% 0 mm
22:04 13.9 °C 8.8 °C 1015.1 hPa WSW 3.2 km/h 6.4 km/h 71% 0 mm
22:09 13.9 °C 8.6 °C 1015.1 hPa SW 3.2 km/h 4.8 km/h 70% 0 mm
22:14 13.9 °C 8.3 °C 1015.1 hPa WSW 4.8 km/h 8 km/h 69% 0 mm
22:19 13.9 °C 8.3 °C 1015.1 hPa WSW 4.8 km/h 9.7 km/h 69% 0 mm
22:24 13.9 °C 8.3 °C 1014.8 hPa WSW 4.8 km/h 9.7 km/h 69% 0 mm
22:29 13.8 °C 8.4 °C 1015.1 hPa WSW 3.2 km/h 4.8 km/h 70% 0 mm
22:34 13.8 °C 8.4 °C 1015.1 hPa Calm   4.8 km/h 70% 0 mm
22:39 13.9 °C 8.7 °C 1015.1 hPa WSW 1.6 km/h 4.8 km/h 71% 0 mm
22:44 13.9 °C 8.8 °C 1014.8 hPa Calm   3.2 km/h 71% 0 mm
22:49 13.8 °C 8.9 °C 1015.1 hPa Calm   3.2 km/h 72% 0 mm
22:54 13.7 °C 8.9 °C 1015.1 hPa Calm   3.2 km/h 73% 0 mm
22:59 13.6 °C 9.1 °C 1015.1 hPa Calm   3.2 km/h 74% 0 mm
23:04 13.7 °C 9.3 °C 1015.1 hPa Calm   1.6 km/h 75% 0 mm
23:09 13.7 °C 9.1 °C 1015.1 hPa Calm   1.6 km/h 74% 0 mm
23:14 13.7 °C 9.3 °C 1015.1 hPa NW 1.6 km/h 6.4 km/h 75% 0 mm
23:19 13.7 °C 9.1 °C 1015.1 hPa NNW 1.6 km/h 6.4 km/h 74% 0 mm
23:24 13.6 °C 9 °C 1015.1 hPa NNW 3.2 km/h 4.8 km/h 74% 0 mm
23:29 13.3 °C 8.8 °C 1015.1 hPa Calm   4.8 km/h 74% 0 mm
23:34 13.1 °C 8.8 °C 1015.1 hPa Calm   3.2 km/h 75% 0 mm
23:39 12.9 °C 8.6 °C 1015.1 hPa Calm   3.2 km/h 75% 0 mm
23:44 12.7 °C 8.6 °C 1015.1 hPa Calm   1.6 km/h 76% 0 mm
23:49 12.4 °C 8.5 °C 1015.5 hPa NNW 1.6 km/h 3.2 km/h 77% 0 mm
23:54 12.4 °C 8.5 °C 1015.1 hPa Calm   3.2 km/h 77% 0 mm
23:59 12.4 °C 8.7 °C 1015.1 hPa Calm   1.6 km/h 78% 0 mm
Buffalo, New York, USA
Compliments of Weather Underground - 2.5 mb